Time;durP1;ratioP1;P1;durP2;ratioP2;P2;SDS_P1;SDS_P2;PMS_P1;PMS_P2;Temp;Humidity;BMP_temperature;BMP_pressure;BME280_temperature;BME280_humidity;BME280_pressure;Samples;Min_cycle;Max_cycle;Signal;HPM_P1;HPM_P2
2023/12/10 00:02:00;;;;;;;5.05;1.17;;;8.20;99.90;;;;;;4970620;28;20033;-63
2023/12/10 00:04:26;;;;;;;13.40;1.85;;;8.20;99.90;;;;;;4970162;28;20073;-63
2023/12/10 00:06:51;;;;;;;7.68;1.58;;;8.20;99.90;;;;;;4970257;28;20464;-62
2023/12/10 00:09:17;;;;;;;3.85;1.17;;;8.10;99.90;;;;;;4970012;28;20133;-63
2023/12/10 00:11:43;;;;;;;12.63;2.00;;;8.20;99.90;;;;;;4970089;28;20038;-62
2023/12/10 00:14:09;;;;;;;14.15;1.77;;;8.20;99.90;;;;;;4971174;28;20131;-62
2023/12/10 00:16:34;;;;;;;12.27;1.85;;;8.20;99.90;;;;;;4969875;28;20588;-63
2023/12/10 00:19:00;;;;;;;20.50;2.95;;;8.20;99.90;;;;;;4970739;28;20383;-63
2023/12/10 00:21:25;;;;;;;14.40;1.58;;;8.20;99.90;;;;;;4969826;28;20031;-63
2023/12/10 00:23:51;;;;;;;12.70;1.70;;;8.20;99.90;;;;;;4970894;28;20039;-62
2023/12/10 00:26:17;;;;;;;25.45;2.58;;;8.20;99.90;;;;;;4970151;28;20459;-65
2023/12/10 00:28:43;;;;;;;17.15;2.90;;;8.20;99.90;;;;;;4970604;28;20046;-62
2023/12/10 00:31:09;;;;;;;22.50;2.50;;;8.20;99.90;;;;;;4970252;28;20468;-62
2023/12/10 00:33:35;;;;;;;18.33;2.22;;;8.20;99.90;;;;;;4971641;28;20802;-62
2023/12/10 00:36:01;;;;;;;19.17;2.15;;;8.20;99.90;;;;;;4970917;28;20050;-63
2023/12/10 00:38:27;;;;;;;19.90;3.35;;;8.20;99.90;;;;;;4969419;28;20042;-62
2023/12/10 00:40:52;;;;;;;16.75;2.60;;;8.20;99.90;;;;;;4970424;28;20081;-63
2023/12/10 00:43:18;;;;;;;21.52;2.78;;;8.20;99.90;;;;;;4969458;28;20126;-65
2023/12/10 00:45:44;;;;;;;19.23;2.63;;;8.20;99.90;;;;;;4970188;28;20081;-63
2023/12/10 00:48:12;;;;;;;18.92;2.53;;;8.20;99.90;;;;;;4970070;28;20506;-62
2023/12/10 00:50:38;;;;;;;20.10;2.38;;;8.20;99.90;;;;;;4969745;28;20031;-62
2023/12/10 00:53:04;;;;;;;24.05;3.20;;;8.20;99.90;;;;;;4969683;28;20085;-62
2023/12/10 00:55:29;;;;;;;20.40;2.95;;;8.20;99.90;;;;;;4968987;28;20125;-63
2023/12/10 00:57:55;;;;;;;17.58;2.28;;;8.10;99.90;;;;;;4970205;28;20043;-62
2023/12/10 01:00:21;;;;;;;16.25;2.45;;;8.10;99.90;;;;;;4969457;28;20209;-63
2023/12/10 01:02:49;;;;;;;20.90;2.63;;;8.10;99.90;;;;;;4969487;28;20172;-63
2023/12/10 01:05:15;;;;;;;22.40;2.20;;;8.10;99.90;;;;;;4970065;28;20042;-62
2023/12/10 01:07:40;;;;;;;28.15;2.60;;;8.10;99.90;;;;;;4969482;28;20057;-62
2023/12/10 01:10:07;;;;;;;20.98;2.50;;;8.10;99.90;;;;;;4970094;28;20472;-62
2023/12/10 01:12:36;;;;;;;14.38;2.22;;;8.00;99.90;;;;;;4968872;28;20093;-62
2023/12/10 01:15:05;;;;;;;26.40;3.00;;;8.10;99.90;;;;;;4969264;28;20543;-63
2023/12/10 01:17:32;;;;;;;19.45;2.88;;;8.00;99.90;;;;;;4968266;28;20030;-63
2023/12/10 01:19:59;;;;;;;23.10;2.80;;;8.00;99.90;;;;;;4970139;28;20499;-63
2023/12/10 01:22:25;;;;;;;13.88;1.95;;;7.90;99.90;;;;;;4969243;28;20400;-63
2023/12/10 01:24:52;;;;;;;19.65;2.33;;;7.90;99.90;;;;;;4969302;28;20030;-63
2023/12/10 01:27:18;;;;;;;23.58;2.67;;;7.90;99.90;;;;;;4969131;28;20062;-65
2023/12/10 01:29:44;;;;;;;16.65;2.20;;;7.90;99.90;;;;;;4969020;28;20038;-62
2023/12/10 01:32:13;;;;;;;22.70;2.55;;;7.80;99.90;;;;;;4969548;28;20043;-63
2023/12/10 01:34:41;;;;;;;24.42;3.47;;;7.80;99.90;;;;;;4969022;28;20097;-62
2023/12/10 01:37:06;;;;;;;20.85;2.40;;;7.70;99.90;;;;;;4966844;28;20031;-62
2023/12/10 01:39:33;;;;;;;23.15;2.35;;;7.70;99.90;;;;;;4968253;28;20089;-62
2023/12/10 01:41:59;;;;;;;24.45;3.08;;;7.70;99.90;;;;;;4982718;28;20113;-63
2023/12/10 01:44:25;;;;;;;22.55;3.88;;;7.70;99.90;;;;;;4968516;28;20110;-63
2023/12/10 01:46:50;;;;;;;16.27;2.78;;;7.70;99.90;;;;;;4969423;28;20039;-62
2023/12/10 01:49:18;;;;;;;35.88;5.70;;;7.70;99.90;;;;;;4969491;28;20027;-63
2023/12/10 01:51:45;;;;;;;26.10;2.90;;;7.80;99.90;;;;;;4982648;28;20471;-62
2023/12/10 01:54:21;;;;;;;29.75;2.78;;;7.80;99.90;;;;;;4961413;28;20106;-63
2023/12/10 01:56:49;;;;;;;22.58;2.60;;;7.70;99.90;;;;;;4968132;28;20046;-63
2023/12/10 01:59:15;;;;;;;25.80;3.33;;;7.70;99.90;;;;;;4968979;28;20491;-63
2023/12/10 02:01:41;;;;;;;25.83;2.63;;;7.70;99.90;;;;;;4968397;28;20034;-63
2023/12/10 02:04:07;;;;;;;24.75;2.60;;;7.70;99.90;;;;;;4969512;28;20401;-62
2023/12/10 02:06:33;;;;;;;20.30;2.60;;;7.80;99.90;;;;;;4968510;28;20022;-63
2023/12/10 02:08:59;;;;;;;30.95;3.47;;;7.80;99.90;;;;;;4968710;28;20023;-63
2023/12/10 02:11:25;;;;;;;28.85;3.25;;;7.90;99.90;;;;;;4968460;28;20038;-63
2023/12/10 02:13:51;;;;;;;28.25;3.80;;;7.90;99.90;;;;;;4977889;28;20038;-63
2023/12/10 02:16:17;;;;;;;25.13;2.47;;;8.00;99.90;;;;;;4974828;28;20043;-62
2023/12/10 02:18:43;;;;;;;45.60;4.43;;;8.00;99.90;;;;;;4968203;28;20038;-62
2023/12/10 02:21:09;;;;;;;29.33;4.00;;;8.00;99.90;;;;;;4969069;28;20035;-63
2023/12/10 02:24:20;;;;;;;31.98;4.80;;;8.00;99.90;;;;;;4968244;28;20038;-62
2023/12/10 02:26:45;;;;;;;;;;;7.90;99.90;;;;;;4939044;29;20102;-63
2023/12/10 02:29:11;;;;;;;28.98;3.20;;;8.00;99.90;;;;;;4928791;29;19927;-63
2023/12/10 02:31:37;;;;;;;31.13;3.63;;;7.90;99.90;;;;;;4920044;29;20119;-63
2023/12/10 02:34:03;;;;;;;33.03;3.72;;;7.90;99.90;;;;;;4926104;29;20485;-63
2023/12/10 02:36:28;;;;;;;32.10;4.32;;;7.90;99.90;;;;;;4923898;29;20479;-63
2023/12/10 02:38:54;;;;;;;25.73;3.13;;;7.90;99.90;;;;;;4931784;29;20051;-62
2023/12/10 02:41:20;;;;;;;27.42;3.78;;;7.80;99.90;;;;;;4930256;29;20075;-63
2023/12/10 02:43:45;;;;;;;28.65;3.97;;;7.80;99.90;;;;;;4930451;29;20067;-63
2023/12/10 02:46:11;;;;;;;25.50;3.30;;;7.80;99.90;;;;;;4927727;29;20040;-64
2023/12/10 02:48:36;;;;;;;24.50;3.45;;;7.80;99.90;;;;;;4915871;29;20044;-63
2023/12/10 02:51:02;;;;;;;30.90;4.13;;;7.80;99.90;;;;;;4913573;29;20052;-63
2023/12/10 02:53:28;;;;;;;25.17;3.35;;;7.70;99.90;;;;;;4919247;29;20031;-63
2023/12/10 02:55:53;;;;;;;28.30;3.63;;;7.70;99.90;;;;;;4929771;29;20121;-63
2023/12/10 02:58:19;;;;;;;28.48;4.57;;;7.70;99.90;;;;;;4966989;28;20106;-63
2023/12/10 03:00:45;;;;;;;32.65;4.20;;;7.70;99.90;;;;;;4971566;28;20187;-63
2023/12/10 03:03:10;;;;;;;33.53;3.58;;;7.70;99.90;;;;;;4972183;28;20026;-63
2023/12/10 03:05:36;;;;;;;34.67;4.38;;;7.60;99.90;;;;;;4971598;28;20035;-63
2023/12/10 03:08:02;;;;;;;26.90;3.90;;;7.50;99.90;;;;;;4972355;28;20561;-63
2023/12/10 03:10:27;;;;;;;22.10;1.95;;;7.30;99.90;;;;;;4971389;28;20046;-64
2023/12/10 03:12:53;;;;;;;13.00;1.98;;;6.90;99.90;;;;;;4972201;28;20042;-63
2023/12/10 03:15:19;;;;;;;16.40;2.13;;;6.70;99.90;;;;;;4971919;28;20030;-63
2023/12/10 03:17:44;;;;;;;12.50;1.80;;;6.60;99.90;;;;;;4971390;28;20029;-63
2023/12/10 03:20:12;;;;;;;12.32;1.40;;;6.50;99.90;;;;;;4971767;28;20023;-63
2023/12/10 03:22:38;;;;;;;9.18;1.70;;;6.50;99.90;;;;;;4971087;28;20030;-62
2023/12/10 03:25:04;;;;;;;14.85;1.60;;;6.50;99.90;;;;;;4972168;28;20048;-63
2023/12/10 03:27:30;;;;;;;11.13;1.13;;;6.50;99.90;;;;;;4984042;28;20079;-63
2023/12/10 03:29:55;;;;;;;11.35;1.80;;;6.40;99.90;;;;;;4980303;28;20054;-63
2023/12/10 03:46:19;;;;;;;14.65;1.75;;;6.10;99.90;;;;;;5111483;27;20390;-62
2023/12/10 03:48:45;;;;;;;11.88;1.48;;;6.40;99.90;;;;;;5108017;28;20043;-63
2023/12/10 03:51:10;;;;;;;11.25;1.58;;;6.40;99.90;;;;;;5106903;28;20028;-64
2023/12/10 03:53:36;;;;;;;10.20;1.23;;;6.20;99.90;;;;;;5105318;28;20031;-66
2023/12/10 03:56:02;;;;;;;12.18;1.48;;;6.10;99.90;;;;;;5105047;28;20055;-63
2023/12/10 03:58:28;;;;;;;11.07;1.60;;;6.10;99.90;;;;;;5114676;28;20027;-64
2023/12/10 04:00:54;;;;;;;13.15;1.70;;;6.10;99.90;;;;;;5114256;28;20046;-63
2023/12/10 04:03:20;;;;;;;15.77;1.80;;;6.10;99.90;;;;;;5118365;28;20452;-63
2023/12/10 04:05:45;;;;;;;10.40;1.75;;;6.00;99.90;;;;;;5124569;28;20061;-64
2023/12/10 04:08:11;;;;;;;12.77;1.65;;;6.00;99.90;;;;;;5113692;28;20074;-64
2023/12/10 04:10:37;;;;;;;19.85;1.90;;;6.10;99.90;;;;;;5107287;28;20019;-66
2023/12/10 04:13:03;;;;;;;14.77;1.80;;;6.10;99.90;;;;;;5114917;28;20077;-63
2023/12/10 04:15:28;;;;;;;13.35;2.20;;;6.10;99.90;;;;;;5103821;28;20040;-63
2023/12/10 04:17:54;;;;;;;19.70;2.15;;;6.20;99.90;;;;;;5123041;28;20485;-63
2023/12/10 04:20:20;;;;;;;20.50;3.22;;;6.30;99.90;;;;;;5106514;28;20035;-65
2023/12/10 04:22:45;;;;;;;20.15;1.92;;;6.40;99.90;;;;;;5105680;28;20047;-64
2023/12/10 04:25:11;;;;;;;20.38;2.00;;;6.40;99.90;;;;;;5116265;28;20036;-64
2023/12/10 04:27:37;;;;;;;20.38;1.83;;;6.40;99.90;;;;;;5104916;28;20469;-63
2023/12/10 04:30:03;;;;;;;8.65;1.55;;;6.40;99.90;;;;;;5105574;28;20023;-63
2023/12/10 04:32:29;;;;;;;15.77;3.03;;;6.30;99.90;;;;;;5109725;28;20023;-63
2023/12/10 04:34:54;;;;;;;16.27;1.83;;;6.30;99.90;;;;;;5113910;28;20039;-63
2023/12/10 04:37:20;;;;;;;23.33;2.25;;;6.30;99.90;;;;;;5120426;28;20036;-65
2023/12/10 04:39:46;;;;;;;19.40;2.50;;;6.30;99.90;;;;;;5104303;28;20047;-65
2023/12/10 04:42:12;;;;;;;25.00;2.25;;;6.40;99.90;;;;;;5104150;28;20031;-64
2023/12/10 04:44:37;;;;;;;16.20;2.00;;;6.40;99.90;;;;;;5105011;28;20056;-64
2023/12/10 04:47:03;;;;;;;17.23;2.20;;;6.40;99.90;;;;;;5091860;28;20515;-62
2023/12/10 04:49:29;;;;;;;11.57;1.92;;;6.40;99.90;;;;;;5090930;28;20422;-63
2023/12/10 04:51:54;;;;;;;18.70;1.80;;;6.40;99.90;;;;;;5091324;28;20172;-64
2023/12/10 04:54:20;;;;;;;14.38;1.73;;;6.40;99.90;;;;;;5093272;28;20112;-65
2023/12/10 04:56:45;;;;;;;19.25;2.05;;;6.50;99.90;;;;;;5104518;28;20056;-65
2023/12/10 04:59:11;;;;;;;20.45;2.58;;;6.60;99.90;;;;;;5091148;28;20109;-63
2023/12/10 05:01:37;;;;;;;14.57;2.00;;;6.60;99.90;;;;;;5091594;28;20067;-64
2023/12/10 05:04:02;;;;;;;15.90;1.90;;;6.50;99.90;;;;;;5102594;28;20936;-63
2023/12/10 05:06:28;;;;;;;13.10;1.98;;;6.60;99.90;;;;;;5106315;28;20106;-64
2023/12/10 05:08:54;;;;;;;16.23;1.63;;;6.50;99.90;;;;;;5093156;28;20028;-63
2023/12/10 05:11:20;;;;;;;21.75;2.17;;;6.50;99.90;;;;;;5092415;28;20085;-65
2023/12/10 05:13:46;;;;;;;16.85;1.95;;;6.50;99.90;;;;;;5090518;28;20114;-65
2023/12/10 05:16:12;;;;;;;14.68;2.20;;;6.50;99.90;;;;;;5110907;28;20036;-63
2023/12/10 05:18:37;;;;;;;15.60;2.33;;;6.40;99.90;;;;;;5098697;28;20367;-63
2023/12/10 05:21:03;;;;;;;24.20;2.42;;;6.40;99.90;;;;;;5095963;28;20086;-63
2023/12/10 05:23:28;;;;;;;16.52;2.20;;;6.50;99.90;;;;;;5092825;28;20027;-63
2023/12/10 05:25:54;;;;;;;17.58;2.33;;;6.50;99.90;;;;;;5094122;28;20040;-63
2023/12/10 05:28:20;;;;;;;22.60;2.63;;;6.50;99.90;;;;;;5092804;28;20053;-65
2023/12/10 05:30:46;;;;;;;21.08;2.05;;;6.50;99.90;;;;;;5094122;28;20048;-65
2023/12/10 05:33:11;;;;;;;16.75;2.78;;;6.40;99.90;;;;;;5090542;28;20067;-64
2023/12/10 05:35:37;;;;;;;19.38;2.28;;;6.40;99.90;;;;;;5106236;28;20111;-64
2023/12/10 05:38:03;;;;;;;13.70;1.92;;;6.40;99.90;;;;;;5106404;28;20577;-64
2023/12/10 05:40:29;;;;;;;17.15;2.17;;;6.40;99.90;;;;;;5097281;28;20093;-64
2023/12/10 05:42:55;;;;;;;13.90;1.75;;;6.50;99.90;;;;;;5105863;28;20044;-63
2023/12/10 05:45:20;;;;;;;21.58;2.67;;;6.50;99.90;;;;;;5099669;28;20094;-65
2023/12/10 05:47:46;;;;;;;17.98;2.35;;;6.50;99.90;;;;;;5089255;28;20428;-66
2023/12/10 05:50:11;;;;;;;19.90;2.60;;;6.40;99.90;;;;;;5091417;28;20043;-64
2023/12/10 05:52:37;;;;;;;18.95;2.38;;;6.50;99.90;;;;;;5088757;28;20484;-64
2023/12/10 05:55:04;;;;;;;18.95;2.67;;;6.50;99.90;;;;;;5089171;28;20028;-63
2023/12/10 05:57:29;;;;;;;16.10;2.20;;;6.50;99.90;;;;;;5088321;28;20027;-64
2023/12/10 05:59:55;;;;;;;16.20;2.30;;;6.40;99.90;;;;;;5087536;28;20535;-64
2023/12/10 06:02:23;;;;;;;19.60;2.67;;;6.40;99.90;;;;;;5090195;28;20470;-64
2023/12/10 06:04:49;;;;;;;21.92;2.47;;;6.40;99.90;;;;;;5089097;28;20081;-64
2023/12/10 06:07:15;;;;;;;20.90;2.78;;;6.30;99.90;;;;;;5095735;28;20473;-64
2023/12/10 06:09:40;;;;;;;22.95;3.22;;;6.30;99.90;;;;;;5110174;28;20449;-64
2023/12/10 06:12:06;;;;;;;28.27;2.72;;;6.30;99.90;;;;;;5109394;28;20103;-64
2023/12/10 06:14:32;;;;;;;16.55;2.25;;;6.40;99.90;;;;;;5110004;28;20370;-63
2023/12/10 06:16:57;;;;;;;20.25;2.67;;;6.40;99.90;;;;;;5091129;28;20061;-63
2023/12/10 06:19:23;;;;;;;10.80;2.15;;;6.40;99.90;;;;;;5090502;28;20465;-63
2023/12/10 06:21:49;;;;;;;23.85;2.00;;;6.40;99.90;;;;;;5070311;28;20032;-67
2023/12/10 06:24:14;;;;;;;29.08;2.55;;;6.50;99.90;;;;;;5089406;28;20040;-63
2023/12/10 06:26:40;;;;;;;20.25;2.10;;;6.50;99.90;;;;;;5088798;28;20032;-65
2023/12/10 06:29:05;;;;;;;15.68;2.17;;;6.50;99.90;;;;;;5088588;28;20048;-66
2023/12/10 06:31:31;;;;;;;15.48;1.95;;;6.50;99.90;;;;;;5085685;28;20031;-64
2023/12/10 06:33:57;;;;;;;25.10;2.50;;;6.50;99.90;;;;;;5086482;28;20051;-64
2023/12/10 06:36:22;;;;;;;16.35;1.90;;;6.40;99.90;;;;;;5087413;28;20029;-64
2023/12/10 06:38:48;;;;;;;28.35;2.88;;;6.40;99.90;;;;;;5084247;28;20042;-66
2023/12/10 06:41:14;;;;;;;17.95;2.03;;;6.30;99.90;;;;;;5089732;28;20028;-64
2023/12/10 06:43:40;;;;;;;18.95;2.45;;;6.30;99.90;;;;;;5089842;28;20093;-64
2023/12/10 06:46:06;;;;;;;21.33;2.25;;;6.30;99.90;;;;;;5102024;28;20052;-65
2023/12/10 06:48:33;;;;;;;15.55;2.13;;;6.30;99.90;;;;;;5110453;28;20487;-63
2023/12/10 06:51:00;;;;;;;20.20;2.42;;;6.30;99.90;;;;;;5107814;28;20027;-63
2023/12/10 06:53:26;;;;;;;19.35;2.65;;;6.30;99.90;;;;;;5088793;28;20027;-65
2023/12/10 06:55:52;;;;;;;23.92;2.35;;;6.30;99.90;;;;;;5085535;28;20066;-64
2023/12/10 06:58:17;;;;;;;14.10;2.03;;;6.30;99.90;;;;;;5089929;28;20032;-64
2023/12/10 07:00:43;;;;;;;20.80;2.30;;;6.40;99.90;;;;;;5089689;28;20469;-64
2023/12/10 07:03:09;;;;;;;17.00;2.28;;;6.40;99.90;;;;;;5088244;28;20114;-64
2023/12/10 07:05:34;;;;;;;18.30;2.42;;;6.40;99.90;;;;;;5089925;28;20131;-64
2023/12/10 07:08:00;;;;;;;19.63;2.45;;;6.40;99.90;;;;;;5088162;28;20028;-64
2023/12/10 07:10:26;;;;;;;18.88;2.78;;;6.40;99.90;;;;;;5089113;28;20024;-65
2023/12/10 07:12:53;;;;;;;17.75;1.80;;;6.40;99.90;;;;;;5073163;28;20031;-64
2023/12/10 07:15:19;;;;;;;14.38;3.20;;;6.40;99.90;;;;;;5086765;28;20384;-65
2023/12/10 07:17:44;;;;;;;23.15;2.60;;;6.40;99.90;;;;;;5091279;28;20043;-63
2023/12/10 07:20:11;;;;;;;18.38;2.25;;;6.40;99.90;;;;;;5089595;28;20035;-65
2023/12/10 07:22:36;;;;;;;15.35;2.10;;;6.40;99.90;;;;;;5088190;28;20138;-64
2023/12/10 07:25:04;;;;;;;14.70;2.40;;;6.30;99.90;;;;;;5088833;28;20457;-63
2023/12/10 07:27:31;;;;;;;18.27;2.60;;;6.30;99.90;;;;;;5104426;28;20054;-65
2023/12/10 07:29:57;;;;;;;13.93;2.63;;;6.30;99.90;;;;;;5108842;28;20084;-64
2023/12/10 07:32:23;;;;;;;18.90;2.97;;;6.30;99.90;;;;;;5090390;28;20035;-63
2023/12/10 07:34:49;;;;;;;26.55;2.83;;;6.30;99.90;;;;;;5088815;28;20040;-66
2023/12/10 07:37:14;;;;;;;20.27;2.72;;;6.40;99.90;;;;;;5088711;28;20078;-62
2023/12/10 07:39:40;;;;;;;15.38;2.53;;;6.30;99.90;;;;;;5102889;28;20485;-64
2023/12/10 07:42:06;;;;;;;20.13;2.13;;;6.20;99.90;;;;;;5090807;28;20028;-65
2023/12/10 07:44:32;;;;;;;16.52;2.50;;;6.20;99.90;;;;;;5104858;28;20056;-62
2023/12/10 07:46:58;;;;;;;22.83;3.10;;;6.30;99.90;;;;;;5108285;28;20474;-62
2023/12/10 07:49:23;;;;;;;16.00;2.03;;;6.30;99.90;;;;;;5109602;28;20100;-62
2023/12/10 07:51:49;;;;;;;19.20;2.03;;;6.30;99.90;;;;;;5095233;28;20461;-64
2023/12/10 07:54:15;;;;;;;20.25;2.92;;;6.30;99.90;;;;;;5088216;28;20394;-63
2023/12/10 07:56:40;;;;;;;19.65;2.45;;;6.20;99.90;;;;;;5089114;28;20422;-64
2023/12/10 07:59:06;;;;;;;13.52;1.75;;;6.30;99.90;;;;;;5090241;28;20073;-65
2023/12/10 08:01:32;;;;;;;16.33;2.42;;;6.40;99.90;;;;;;5093342;28;20023;-63
2023/12/10 08:03:58;;;;;;;18.52;2.70;;;6.40;99.90;;;;;;5092829;28;20036;-63
2023/12/10 08:06:23;;;;;;;18.35;2.78;;;6.50;99.90;;;;;;5088429;28;20054;-62
2023/12/10 08:08:49;;;;;;;15.35;2.10;;;6.60;99.90;;;;;;5088957;28;20020;-63
2023/12/10 08:11:15;;;;;;;14.43;2.03;;;6.60;99.90;;;;;;5085009;28;20077;-63
2023/12/10 08:13:40;;;;;;;30.10;2.47;;;6.80;99.90;;;;;;5090540;28;20035;-64
2023/12/10 08:16:06;;;;;;;24.80;2.03;;;6.80;99.90;;;;;;5096467;28;20042;-64
2023/12/10 08:18:32;;;;;;;20.15;2.55;;;6.90;99.90;;;;;;5089085;28;20055;-63
2023/12/10 08:20:59;;;;;;;14.52;2.10;;;7.00;99.90;;;;;;5083071;28;20519;-62
2023/12/10 08:23:24;;;;;;;18.70;2.65;;;7.00;99.90;;;;;;5105912;28;20031;-62
2023/12/10 08:25:50;;;;;;;24.60;2.58;;;7.10;99.90;;;;;;5110203;28;20829;-64
2023/12/10 08:28:16;;;;;;;19.52;2.65;;;7.10;99.90;;;;;;5103639;28;20057;-65
2023/12/10 08:30:41;;;;;;;11.32;1.48;;;7.00;99.90;;;;;;5099898;28;20043;-63
2023/12/10 08:33:07;;;;;;;23.25;2.33;;;7.10;99.90;;;;;;5094006;28;20053;-61
2023/12/10 08:35:32;;;;;;;22.10;2.20;;;7.00;99.90;;;;;;5099371;28;20102;-62
2023/12/10 08:37:58;;;;;;;14.18;1.85;;;7.00;99.90;;;;;;5098494;28;20474;-63
2023/12/10 08:40:24;;;;;;;17.20;2.03;;;7.00;99.90;;;;;;5092442;28;20458;-62
2023/12/10 08:42:49;;;;;;;12.07;1.80;;;7.00;99.90;;;;;;5090144;28;20028;-64
2023/12/10 08:45:15;;;;;;;20.67;2.58;;;7.00;99.90;;;;;;5098661;28;20047;-65
2023/12/10 08:47:41;;;;;;;12.35;1.60;;;7.00;99.90;;;;;;5110866;28;20036;-63
2023/12/10 08:50:07;;;;;;;14.57;2.17;;;7.00;99.90;;;;;;5111634;28;20020;-64
2023/12/10 08:52:32;;;;;;;14.40;2.10;;;7.00;99.90;;;;;;5096157;27;20035;-62
2023/12/10 08:54:58;;;;;;;18.42;2.42;;;6.90;99.90;;;;;;5083712;28;20398;-64
2023/12/10 08:57:24;;;;;;;19.25;2.00;;;6.90;99.90;;;;;;5092324;28;20032;-62
2023/12/10 08:59:50;;;;;;;18.15;2.28;;;7.00;99.90;;;;;;5091986;28;20032;-62
2023/12/10 09:02:16;;;;;;;18.10;2.05;;;7.00;99.90;;;;;;5090957;28;20069;-63
2023/12/10 09:04:41;;;;;;;16.77;2.20;;;7.00;99.90;;;;;;5093456;28;20024;-62
2023/12/10 09:07:07;;;;;;;17.23;2.10;;;7.00;99.90;;;;;;5091224;28;20044;-63
2023/12/10 09:09:33;;;;;;;17.45;2.58;;;7.00;99.90;;;;;;5090909;28;20109;-64
2023/12/10 09:11:59;;;;;;;17.13;3.10;;;7.00;99.90;;;;;;5074821;28;20177;-66
2023/12/10 09:14:25;;;;;;;18.27;2.90;;;7.10;99.90;;;;;;5094870;28;20893;-63
2023/12/10 09:16:51;;;;;;;13.40;3.00;;;7.10;99.90;;;;;;5095539;28;20066;-63
2023/12/10 09:19:17;;;;;;;16.08;2.55;;;7.20;99.90;;;;;;5091879;28;20024;-63
2023/12/10 09:21:43;;;;;;;13.70;2.72;;;7.20;99.90;;;;;;5091009;28;20388;-64
2023/12/10 09:24:09;;;;;;;13.20;1.92;;;7.20;99.90;;;;;;5091128;28;20024;-63
2023/12/10 09:26:35;;;;;;;14.93;2.30;;;7.30;99.90;;;;;;5090444;28;20462;-65
2023/12/10 09:29:01;;;;;;;21.15;2.47;;;7.30;99.90;;;;;;5090089;28;20040;-63
2023/12/10 09:31:27;;;;;;;17.33;2.40;;;7.30;99.90;;;;;;5090901;28;20444;-63
2023/12/10 09:33:53;;;;;;;16.27;2.47;;;7.30;99.90;;;;;;5090104;28;20116;-62
2023/12/10 09:36:19;;;;;;;19.30;2.17;;;7.20;99.90;;;;;;5091028;28;20515;-62
2023/12/10 09:38:44;;;;;;;19.98;2.67;;;7.20;99.90;;;;;;5091138;28;20024;-62
2023/12/10 09:41:10;;;;;;;17.83;2.35;;;7.20;99.90;;;;;;5090277;28;20032;-64
2023/12/10 09:43:36;;;;;;;16.20;2.40;;;7.20;99.90;;;;;;5091235;28;20081;-63
2023/12/10 09:46:03;;;;;;;17.92;2.55;;;7.10;99.90;;;;;;5090568;28;20435;-63
2023/12/10 09:48:30;;;;;;;18.52;3.05;;;7.10;99.90;;;;;;5091379;28;20193;-65
2023/12/10 09:50:56;;;;;;;20.63;2.83;;;7.10;99.90;;;;;;5090797;28;20445;-65
2023/12/10 09:53:22;;;;;;;22.75;2.63;;;7.10;99.90;;;;;;5090648;28;20028;-62
2023/12/10 09:55:48;;;;;;;21.45;2.15;;;7.00;99.90;;;;;;5089707;28;20055;-62
2023/12/10 09:58:14;;;;;;;14.32;2.03;;;7.00;99.90;;;;;;5089686;28;20426;-62
2023/12/10 10:00:40;;;;;;;20.98;3.08;;;7.00;99.90;;;;;;5108112;27;20055;-63
2023/12/10 10:03:06;;;;;;;20.98;2.40;;;7.10;99.90;;;;;;5088727;28;20495;-64
2023/12/10 10:05:34;;;;;;;15.25;2.20;;;7.10;99.90;;;;;;5090769;28;20032;-63
2023/12/10 10:08:00;;;;;;;14.77;2.80;;;7.10;99.90;;;;;;5090636;28;20097;-65
2023/12/10 10:10:26;;;;;;;13.00;2.00;;;7.10;99.90;;;;;;5088780;28;20032;-64
2023/12/10 10:12:55;;;;;;;16.27;2.50;;;7.10;99.90;;;;;;5090737;28;20024;-62
2023/12/10 10:15:27;;;;;;;20.08;2.80;;;7.00;99.90;;;;;;5089856;28;20044;-62
2023/12/10 10:17:53;;;;;;;17.35;2.67;;;6.90;99.90;;;;;;5090720;28;20024;-62
2023/12/10 10:20:21;;;;;;;19.17;2.70;;;6.90;99.90;;;;;;5088867;28;20043;-61
2023/12/10 10:22:47;;;;;;;12.93;2.42;;;6.90;99.90;;;;;;5090823;28;20020;-62
2023/12/10 10:25:13;;;;;;;16.15;1.83;;;7.00;99.90;;;;;;5089409;28;20526;-63
2023/12/10 10:27:38;;;;;;;16.02;1.48;;;7.00;99.90;;;;;;5090098;28;20028;-66
2023/12/10 10:30:05;;;;;;;15.68;2.92;;;6.90;99.90;;;;;;5089382;28;20032;-64
2023/12/10 10:32:30;;;;;;;24.05;2.42;;;7.00;99.90;;;;;;5090294;28;20032;-63
2023/12/10 10:34:58;;;;;;;17.02;1.88;;;7.10;99.90;;;;;;5090397;28;20170;-64
2023/12/10 10:37:24;;;;;;;24.40;2.50;;;7.10;99.90;;;;;;5089251;28;20036;-63
2023/12/10 10:39:50;;;;;;;16.95;2.03;;;7.10;99.90;;;;;;5086959;28;20056;-64
2023/12/10 10:42:18;;;;;;;20.73;2.05;;;7.00;99.90;;;;;;5086944;28;20028;-63
2023/12/10 10:44:46;;;;;;;15.73;1.80;;;7.00;99.90;;;;;;5086054;28;20063;-63
2023/12/10 10:47:12;;;;;;;7.60;1.75;;;7.00;99.90;;;;;;5087646;28;20470;-62
2023/12/10 10:49:47;;;;;;;17.33;2.10;;;7.00;99.90;;;;;;5087892;28;20046;-62
2023/12/10 10:52:16;;;;;;;16.73;2.00;;;6.90;99.90;;;;;;5080927;28;20032;-62
2023/12/10 10:54:43;;;;;;;16.42;2.40;;;6.90;99.90;;;;;;5084541;28;20086;-63
2023/12/10 10:57:09;;;;;;;19.20;2.45;;;6.80;99.90;;;;;;5074453;28;20044;-62
2023/12/10 10:59:35;;;;;;;21.77;2.85;;;7.00;99.90;;;;;;5080722;28;20094;-62
2023/12/10 11:02:04;;;;;;;11.07;1.83;;;7.00;99.90;;;;;;5088199;28;20381;-66
2023/12/10 11:04:37;;;;;;;13.68;1.80;;;7.00;99.90;;;;;;5069646;28;20880;-64
2023/12/10 11:07:04;;;;;;;10.85;1.52;;;7.10;99.90;;;;;;5082838;28;20034;-67
2023/12/10 11:09:33;;;;;;;8.82;1.60;;;7.40;99.90;;;;;;5077915;28;20020;-62
2023/12/10 11:11:59;;;;;;;9.48;1.80;;;7.40;99.90;;;;;;5080343;28;20032;-62
2023/12/10 11:14:26;;;;;;;17.50;1.88;;;7.50;99.90;;;;;;5079471;28;20068;-62
2023/12/10 11:17:06;;;;;;;15.10;1.70;;;7.50;99.90;;;;;;5086785;28;20089;-62
2023/12/10 11:19:33;;;;;;;8.10;1.42;;;7.80;99.90;;;;;;5067121;28;20043;-63
2023/12/10 11:21:59;;;;;;;17.08;2.15;;;7.80;99.90;;;;;;5081837;28;20088;-62
2023/12/10 11:24:25;;;;;;;18.45;2.10;;;7.70;99.90;;;;;;5088824;28;20032;-64
2023/12/10 11:26:51;;;;;;;13.88;1.40;;;7.50;99.90;;;;;;5089501;28;20024;-63
2023/12/10 11:29:17;;;;;;;14.25;1.73;;;7.50;99.90;;;;;;5088443;28;20381;-63
2023/12/10 11:31:44;;;;;;;14.95;1.95;;;7.50;99.90;;;;;;5098386;28;20024;-63
2023/12/10 11:34:10;;;;;;;14.77;1.40;;;7.50;99.90;;;;;;5107525;28;20744;-63
2023/12/10 11:36:36;;;;;;;11.63;1.60;;;7.40;99.90;;;;;;5109871;28;20035;-64
2023/12/10 11:39:01;;;;;;;9.32;2.00;;;7.40;99.90;;;;;;5097430;28;20035;-63
2023/12/10 11:41:27;;;;;;;15.82;1.92;;;7.40;99.90;;;;;;5088080;28;20055;-63
2023/12/10 11:43:53;;;;;;;10.70;1.73;;;7.40;99.90;;;;;;5089195;28;20071;-62
2023/12/10 11:46:23;;;;;;;14.93;1.67;;;7.40;99.90;;;;;;5088451;28;20042;-63
2023/12/10 11:48:50;;;;;;;13.05;1.45;;;7.40;99.90;;;;;;5088842;28;20472;-63
2023/12/10 11:51:19;;;;;;;15.00;1.60;;;7.50;99.90;;;;;;5087324;28;20039;-64
2023/12/10 11:53:46;;;;;;;13.52;1.52;;;7.40;99.90;;;;;;5089048;28;20442;-62
2023/12/10 11:56:11;;;;;;;11.15;1.63;;;7.40;99.90;;;;;;5089802;28;20051;-63
2023/12/10 11:58:37;;;;;;;11.25;1.55;;;7.40;99.90;;;;;;5092805;28;20024;-63
2023/12/10 12:01:03;;;;;;;14.20;1.95;;;7.30;99.90;;;;;;5093395;28;20525;-63
2023/12/10 12:03:33;;;;;;;15.80;2.83;;;7.40;99.90;;;;;;5092286;28;20033;-63
2023/12/10 12:05:59;;;;;;;14.03;1.97;;;7.50;99.90;;;;;;5091895;28;20027;-64
2023/12/10 12:08:26;;;;;;;13.15;1.88;;;7.40;99.90;;;;;;5092105;28;20059;-65
2023/12/10 12:10:53;;;;;;;12.15;1.52;;;7.50;99.90;;;;;;5093157;28;20082;-65
2023/12/10 12:13:19;;;;;;;14.63;1.90;;;7.50;99.90;;;;;;5092139;28;20072;-62
2023/12/10 12:15:49;;;;;;;13.57;2.22;;;7.50;99.90;;;;;;5092118;28;20413;-63
2023/12/10 12:18:15;;;;;;;17.67;2.17;;;7.60;99.90;;;;;;5092258;28;20039;-64
2023/12/10 12:20:41;;;;;;;12.85;1.70;;;7.60;99.90;;;;;;5092997;28;20377;-63
2023/12/10 12:23:07;;;;;;;13.23;1.98;;;7.60;99.90;;;;;;5092472;28;20020;-66
2023/12/10 12:25:37;;;;;;;22.92;2.03;;;7.60;99.90;;;;;;5092069;28;20035;-63
2023/12/10 12:28:07;;;;;;;14.30;2.17;;;7.60;99.90;;;;;;5092912;28;20471;-63
2023/12/10 12:30:37;;;;;;;21.17;2.58;;;7.60;99.90;;;;;;5092578;28;20034;-63
2023/12/10 12:33:03;;;;;;;13.02;1.60;;;7.50;99.90;;;;;;5092452;28;20058;-63
2023/12/10 12:35:30;;;;;;;12.63;2.38;;;7.50;99.90;;;;;;5090076;28;20846;-63
2023/12/10 12:37:58;;;;;;;14.73;1.90;;;7.60;99.90;;;;;;5092546;28;20055;-64
2023/12/10 12:40:24;;;;;;;12.15;1.73;;;7.50;99.90;;;;;;5091545;28;20385;-63
2023/12/10 12:42:50;;;;;;;12.35;2.08;;;7.50;99.90;;;;;;5092374;28;20028;-63
2023/12/10 12:45:17;;;;;;;14.23;2.67;;;7.50;99.90;;;;;;5091113;28;20047;-64
2023/12/10 12:47:43;;;;;;;16.13;1.70;;;7.40;99.90;;;;;;5092303;28;20073;-63
2023/12/10 12:50:09;;;;;;;18.05;2.17;;;7.50;99.90;;;;;;5091779;28;20028;-66
2023/12/10 12:52:35;;;;;;;17.88;3.20;;;7.60;99.90;;;;;;5091894;28;20024;-64
2023/12/10 12:55:02;;;;;;;17.80;2.47;;;7.60;99.90;;;;;;5091703;28;20380;-63
2023/12/10 12:57:28;;;;;;;10.65;1.73;;;7.60;99.90;;;;;;5091295;28;20028;-63